createdAt,value
2022-08-05T00:01:28.321Z,5.80
2022-08-05T00:03:57.148Z,9.52
2022-08-05T00:06:32.477Z,5.18
2022-08-05T00:09:01.025Z,5.07
2022-08-05T00:11:30.687Z,4.53
2022-08-05T00:14:02.423Z,5.65
2022-08-05T00:16:52.712Z,7.07
2022-08-05T00:19:22.271Z,8.38
2022-08-05T00:21:50.259Z,4.88
2022-08-05T00:24:24.151Z,6.25
2022-08-05T00:26:52.188Z,5.35
2022-08-05T00:29:22.747Z,5.07
2022-08-05T00:32:10.543Z,6.25
2022-08-05T00:35:05.476Z,9.30
2022-08-05T00:37:51.190Z,4.60
2022-08-05T00:40:26.652Z,5.25
2022-08-05T00:42:58.911Z,6.35
2022-08-05T00:45:38.144Z,6.22
2022-08-05T00:48:10.287Z,7.30
2022-08-05T00:50:37.928Z,8.38
2022-08-05T00:53:09.938Z,6.10
2022-08-05T00:55:51.618Z,6.88
2022-08-05T00:58:19.046Z,8.25
2022-08-05T01:00:47.752Z,7.47
2022-08-05T01:03:22.973Z,6.00
2022-08-05T01:08:41.989Z,5.80
2022-08-05T01:11:11.275Z,6.95
2022-08-05T01:13:57.942Z,5.82
2022-08-05T01:16:52.254Z,8.65
2022-08-05T01:19:21.717Z,4.72
2022-08-05T01:22:18.793Z,7.55
2022-08-05T01:24:50.821Z,7.70
2022-08-05T01:27:54.994Z,5.18
2022-08-05T01:30:34.470Z,6.18
2022-08-05T01:33:06.128Z,6.53
2022-08-05T01:38:27.621Z,9.10
2022-08-05T01:41:01.381Z,6.50
2022-08-05T01:43:29.869Z,8.20
2022-08-05T01:45:57.833Z,6.22
2022-08-05T01:48:31.543Z,25.83
2022-08-05T01:51:00.043Z,9.13
2022-08-05T01:53:57.213Z,9.90
2022-08-05T01:58:09.489Z,7.90
2022-08-05T01:59:20.668Z,7.72
2022-08-05T02:01:49.871Z,7.72
2022-08-05T02:04:20.127Z,6.53
2022-08-05T02:06:48.046Z,6.13
2022-08-05T02:09:16.369Z,7.38
2022-08-05T02:11:59.014Z,7.70
2022-08-05T02:14:32.295Z,6.20
2022-08-05T02:17:29.827Z,9.27
2022-08-05T02:20:02.137Z,7.80
2022-08-05T02:22:33.217Z,7.68
2022-08-05T02:25:12.704Z,6.60
2022-08-05T02:27:59.725Z,11.07
2022-08-05T02:30:54.215Z,7.85
2022-08-05T02:33:24.514Z,7.90
2022-08-05T02:36:03.741Z,6.72
2022-08-05T02:38:35.009Z,6.32
2022-08-05T02:41:14.657Z,5.85
2022-08-05T02:44:02.533Z,6.47
2022-08-05T02:46:33.802Z,7.85
2022-08-05T02:49:02.046Z,6.90
2022-08-05T02:52:02.854Z,8.15
2022-08-05T02:54:34.360Z,9.15
2022-08-05T02:57:03.131Z,8.00
2022-08-05T02:59:34.585Z,8.32
2022-08-05T03:02:17.514Z,7.97
2022-08-05T03:04:45.105Z,6.55
2022-08-05T03:07:30.845Z,8.85
2022-08-05T03:09:59.597Z,6.25
2022-08-05T03:12:30.022Z,8.80
2022-08-05T03:14:57.865Z,7.10
2022-08-05T03:17:24.779Z,8.32
2022-08-05T03:19:51.732Z,6.35
2022-08-05T03:22:19.094Z,8.68
2022-08-05T03:25:11.723Z,8.27
2022-08-05T03:27:59.907Z,6.13
2022-08-05T03:30:33.626Z,9.15
2022-08-05T03:33:06.017Z,7.68
2022-08-05T03:35:40.474Z,9.15
2022-08-05T03:38:11.428Z,8.13
2022-08-05T03:40:45.152Z,8.30
2022-08-05T03:43:58.743Z,11.95
2022-08-05T03:46:02.173Z,6.72
2022-08-05T03:48:30.745Z,9.00
2022-08-05T03:52:37.444Z,14.07
2022-08-05T03:55:50.695Z,13.60
2022-08-05T03:57:28.946Z,7.00
2022-08-05T04:00:00.250Z,8.02
2022-08-05T04:02:38.548Z,8.18
2022-08-05T04:05:09.826Z,7.07
2022-08-05T04:07:57.269Z,9.25
2022-08-05T04:10:27.809Z,11.90
2022-08-05T04:12:55.488Z,9.98
2022-08-05T04:15:25.765Z,11.55
2022-08-05T04:17:59.901Z,11.80
2022-08-05T04:20:26.730Z,12.48
2022-08-05T04:22:53.327Z,11.48
2022-08-05T04:25:20.165Z,7.57
2022-08-05T04:28:12.792Z,9.45
2022-08-05T04:30:39.659Z,11.02
2022-08-05T04:33:06.320Z,8.52
2022-08-05T04:36:11.011Z,10.70
2022-08-05T04:38:20.894Z,7.20
2022-08-05T04:40:50.688Z,8.15
2022-08-05T04:43:17.769Z,11.10
2022-08-05T04:45:54.884Z,8.23
2022-08-05T04:48:27.407Z,10.70
2022-08-05T04:51:03.547Z,9.10
2022-08-05T04:56:33.548Z,10.50
2022-08-05T04:58:56.691Z,8.27
2022-08-05T05:02:05.792Z,9.95
2022-08-05T05:04:10.074Z,7.05
2022-08-05T05:06:40.890Z,10.52
2022-08-05T05:09:17.594Z,8.45
2022-08-05T05:11:54.381Z,7.03
2022-08-05T05:14:27.909Z,7.47
2022-08-05T05:16:59.435Z,6.07
2022-08-05T05:19:27.539Z,7.72
2022-08-05T05:22:22.884Z,8.10
2022-08-05T05:24:59.025Z,8.07
2022-08-05T05:27:44.285Z,7.80
2022-08-05T05:30:29.433Z,6.15
2022-08-05T05:33:03.539Z,6.82
2022-08-05T05:35:42.593Z,6.78
2022-08-05T05:38:13.163Z,7.30
2022-08-05T05:40:49.645Z,6.50
2022-08-05T05:43:28.078Z,7.50
2022-08-05T05:46:08.493Z,8.48
2022-08-05T05:48:41.896Z,6.28
2022-08-05T05:51:15.788Z,7.70
2022-08-05T05:53:54.414Z,8.15
2022-08-05T05:56:32.369Z,6.90
2022-08-05T05:59:05.858Z,10.90
2022-08-05T06:01:39.757Z,11.23
2022-08-05T06:04:11.324Z,10.13
2022-08-05T06:06:46.628Z,10.87
2022-08-05T06:09:17.465Z,8.38
2022-08-05T06:12:01.958Z,7.43
2022-08-05T06:14:34.737Z,10.27
2022-08-05T06:17:22.419Z,5.67
2022-08-05T06:19:56.723Z,8.82
2022-08-05T06:22:33.902Z,8.63
2022-08-05T06:25:01.175Z,8.25
2022-08-05T06:28:09.175Z,11.15
2022-08-05T06:30:34.420Z,7.90
2022-08-05T06:33:01.519Z,8.70
2022-08-05T06:36:06.907Z,10.32
2022-08-05T06:38:15.134Z,8.40
2022-08-05T06:40:44.485Z,11.07
2022-08-05T06:43:58.580Z,10.73
2022-08-05T06:46:06.561Z,10.43
2022-08-05T06:48:53.285Z,6.70
2022-08-05T06:51:29.075Z,8.35
2022-08-05T06:53:59.768Z,8.73
2022-08-05T06:56:27.651Z,8.27
2022-08-05T06:58:55.276Z,10.65
2022-08-05T07:01:22.689Z,5.80
2022-08-05T07:03:49.854Z,6.50
2022-08-05T07:06:17.500Z,7.43
2022-08-05T07:08:51.758Z,7.07
2022-08-05T07:11:22.260Z,7.53
2022-08-05T07:14:08.240Z,8.65
2022-08-05T07:18:08.484Z,6.30
2022-08-05T07:22:28.646Z,8.30
2022-08-05T07:25:21.698Z,6.78
2022-08-05T07:27:56.535Z,6.07
2022-08-05T07:30:31.030Z,5.60
2022-08-05T07:35:56.003Z,4.50
2022-08-05T07:38:32.421Z,6.38
2022-08-05T07:42:09.440Z,7.43
2022-08-05T07:43:52.830Z,4.72
2022-08-05T07:46:24.544Z,5.75
2022-08-05T07:49:01.797Z,5.60
2022-08-05T07:51:37.383Z,2.75
2022-08-05T07:54:08.382Z,4.50
2022-08-05T07:56:38.998Z,4.18
2022-08-05T07:59:31.069Z,5.28
2022-08-05T08:02:16.118Z,3.97
2022-08-05T08:04:48.971Z,6.07
2022-08-05T08:07:22.662Z,5.63
2022-08-05T08:09:52.495Z,4.32
2022-08-05T08:12:37.172Z,5.00
2022-08-05T08:15:14.147Z,4.38
2022-08-05T08:17:46.133Z,4.03
2022-08-05T08:20:43.476Z,4.88
2022-08-05T08:23:04.436Z,5.85
2022-08-05T08:26:00.015Z,4.65
2022-08-05T08:28:18.839Z,5.50
2022-08-05T08:31:04.497Z,3.75
2022-08-05T08:33:37.573Z,4.47
2022-08-05T08:38:56.020Z,5.70
2022-08-05T08:41:50.633Z,3.83
2022-08-05T08:45:20.945Z,6.57
2022-08-05T08:47:03.810Z,6.18
2022-08-05T08:50:12.970Z,3.00
2022-08-05T08:52:38.878Z,7.30
2022-08-05T08:55:11.124Z,5.40
2022-08-05T08:57:48.250Z,4.07
2022-08-05T09:00:25.198Z,5.68
2022-08-05T09:02:54.480Z,4.82
2022-08-05T09:05:38.950Z,3.20
2022-08-05T09:08:09.715Z,4.20
2022-08-05T09:10:36.613Z,4.07
2022-08-05T09:13:07.033Z,3.95
2022-08-05T09:15:37.099Z,3.35
2022-08-05T09:18:07.353Z,5.45
2022-08-05T09:20:38.038Z,4.30
2022-08-05T09:23:18.666Z,7.88
2022-08-05T09:26:03.838Z,4.05
2022-08-05T09:28:34.743Z,4.07
2022-08-05T09:31:23.483Z,8.05
2022-08-05T09:34:07.154Z,5.22
2022-08-05T09:36:55.897Z,7.15
2022-08-05T09:39:27.567Z,6.28
2022-08-05T09:42:08.567Z,8.68
2022-08-05T09:44:46.023Z,4.85
2022-08-05T09:47:36.383Z,6.47
2022-08-05T09:50:18.090Z,4.20
2022-08-05T09:53:00.428Z,4.45
2022-08-05T09:55:57.652Z,4.38
2022-08-05T09:58:15.866Z,3.72
2022-08-05T10:00:54.952Z,3.00
2022-08-05T10:03:21.916Z,3.90
2022-08-05T10:06:04.782Z,6.72
2022-08-05T10:08:38.135Z,4.53
2022-08-05T10:11:16.304Z,5.20
2022-08-05T10:13:45.732Z,6.75
2022-08-05T10:16:37.729Z,5.07
2022-08-05T10:19:10.138Z,3.85
2022-08-05T10:21:40.915Z,5.30
2022-08-05T10:24:13.753Z,2.95
2022-08-05T10:26:51.637Z,3.03
2022-08-05T10:29:24.064Z,2.60
2022-08-05T10:33:00.862Z,2.50
2022-08-05T10:35:01.159Z,1.80
2022-08-05T10:37:37.258Z,2.45
2022-08-05T10:40:34.885Z,2.22
2022-08-05T10:43:35.663Z,2.65
2022-08-05T10:46:08.327Z,3.15
2022-08-05T10:48:56.967Z,2.30
2022-08-05T10:51:28.436Z,1.65
2022-08-05T10:53:58.531Z,1.85
2022-08-05T10:56:44.137Z,2.65
2022-08-05T11:00:02.060Z,1.00
2022-08-05T11:02:14.569Z,1.92
2022-08-05T11:04:59.617Z,2.20
2022-08-05T11:07:33.039Z,1.05
2022-08-05T11:10:27.496Z,1.45
2022-08-05T11:12:57.414Z,1.53
2022-08-05T11:16:00.708Z,1.27
2022-08-05T11:18:32.523Z,2.00
2022-08-05T11:21:02.903Z,1.95
2022-08-05T11:24:04.264Z,1.65
2022-08-05T11:26:38.220Z,2.45
2022-08-05T11:29:13.265Z,2.63
2022-08-05T11:31:58.023Z,2.67
2022-08-05T11:34:39.103Z,3.80
2022-08-05T11:38:28.002Z,3.17
2022-08-05T11:40:00.700Z,2.40
2022-08-05T11:42:40.265Z,3.05
2022-08-05T11:45:26.760Z,3.70
2022-08-05T11:47:55.241Z,4.15
2022-08-05T11:50:22.756Z,2.72
2022-08-05T11:52:54.428Z,4.10
2022-08-05T11:55:32.326Z,7.05
2022-08-05T11:58:10.861Z,3.33
2022-08-05T12:00:44.490Z,2.72
2022-08-05T12:03:28.429Z,3.47
2022-08-05T12:06:06.009Z,5.93
2022-08-05T12:09:04.656Z,3.33
2022-08-05T12:11:40.357Z,2.55
2022-08-05T12:14:12.934Z,3.03
2022-08-05T12:16:45.109Z,3.13
2022-08-05T12:20:26.400Z,3.67
2022-08-05T12:22:03.014Z,3.70
2022-08-05T12:24:32.287Z,2.22
2022-08-05T12:27:09.954Z,1.92
2022-08-05T12:30:08.903Z,2.92
2022-08-05T12:32:44.537Z,2.95
2022-08-05T12:35:21.863Z,3.83
2022-08-05T12:37:49.365Z,1.80
2022-08-05T12:40:26.771Z,4.35
2022-08-05T12:42:56.004Z,3.90
2022-08-05T12:45:22.725Z,3.75
2022-08-05T12:48:27.190Z,4.53
2022-08-05T12:52:10.192Z,5.03
2022-08-05T12:54:04.588Z,8.57
2022-08-05T12:56:45.136Z,4.32
2022-08-05T13:00:08.654Z,3.90
2022-08-05T13:02:30.778Z,6.78
2022-08-05T13:04:57.737Z,4.95
2022-08-05T13:07:57.638Z,2.20
2022-08-05T13:10:14.928Z,2.50
2022-08-05T13:12:51.065Z,3.03
2022-08-05T13:15:41.414Z,3.13
2022-08-05T13:18:20.010Z,1.75
2022-08-05T13:20:48.951Z,1.52
2022-08-05T13:23:22.156Z,3.33
2022-08-05T13:25:51.805Z,2.63
2022-08-05T13:28:27.030Z,2.55
2022-08-05T13:30:53.789Z,1.65
2022-08-05T13:34:22.157Z,2.35
2022-08-05T13:36:09.211Z,0.77
2022-08-05T13:38:38.556Z,1.35
2022-08-05T13:41:08.816Z,4.28
2022-08-05T13:43:44.916Z,1.75
2022-08-05T13:47:01.697Z,1.80
2022-08-05T13:49:11.510Z,1.55
2022-08-05T13:51:41.162Z,0.95
2022-08-05T13:54:12.710Z,3.30
2022-08-05T13:56:44.947Z,1.08
2022-08-05T13:59:27.451Z,0.63
2022-08-05T14:02:00.090Z,1.90
2022-08-05T14:04:49.542Z,1.15
2022-08-05T14:07:55.400Z,2.63
2022-08-05T14:10:08.482Z,1.02
2022-08-05T14:12:35.641Z,1.27
2022-08-05T14:15:06.012Z,1.70
2022-08-05T14:17:49.057Z,1.25
2022-08-05T14:20:18.349Z,0.60
2022-08-05T14:22:50.197Z,0.50
2022-08-05T14:25:21.586Z,1.10
2022-08-05T14:27:50.931Z,0.63
2022-08-05T14:30:20.927Z,2.45
2022-08-05T14:32:48.907Z,0.63
2022-08-05T14:35:16.339Z,0.40
2022-08-05T14:37:52.172Z,14.45
2022-08-05T14:40:24.430Z,9.63
2022-08-05T14:42:51.623Z,0.95
2022-08-05T14:45:18.853Z,1.77
2022-08-05T14:48:04.205Z,1.42
2022-08-05T14:50:32.662Z,0.70
2022-08-05T14:53:00.273Z,0.95
2022-08-05T14:55:38.443Z,2.17
2022-08-05T14:58:11.847Z,2.60
2022-08-05T15:00:59.431Z,2.25
2022-08-05T15:03:33.746Z,0.95
2022-08-05T15:06:07.772Z,4.63
2022-08-05T15:09:01.264Z,0.82
2022-08-05T15:11:51.148Z,2.03
2022-08-05T15:14:33.359Z,0.68
2022-08-05T15:17:01.638Z,0.35
2022-08-05T15:19:30.759Z,1.15
2022-08-05T15:21:57.991Z,0.65
2022-08-05T15:24:27.630Z,3.00
2022-08-05T15:26:55.800Z,1.75
2022-08-05T15:32:03.347Z,1.85
2022-08-05T15:34:34.073Z,0.90
2022-08-05T15:37:06.876Z,0.68
2022-08-05T15:41:00.283Z,0.30
2022-08-05T15:42:50.065Z,1.02
2022-08-05T15:45:15.442Z,6.65
2022-08-05T15:47:43.295Z,0.57
2022-08-05T15:50:15.352Z,2.50
2022-08-05T15:52:53.738Z,0.63
2022-08-05T15:55:25.094Z,1.10
2022-08-05T15:58:08.497Z,2.85
2022-08-05T16:00:56.987Z,0.65
2022-08-05T16:03:21.570Z,0.68
2022-08-05T16:05:52.444Z,0.77
2022-08-05T16:08:19.320Z,1.08
2022-08-05T16:10:45.907Z,0.43
2022-08-05T16:13:12.607Z,0.70
2022-08-05T16:15:51.813Z,0.75
2022-08-05T16:18:18.810Z,1.27
2022-08-05T16:20:46.428Z,0.85
2022-08-05T16:23:13.114Z,0.32
2022-08-05T16:25:40.113Z,1.27
2022-08-05T16:28:09.803Z,0.77
2022-08-05T16:30:37.090Z,0.98
2022-08-05T16:33:03.706Z,1.88
2022-08-05T16:35:32.163Z,1.50
2022-08-05T16:38:15.953Z,0.90
2022-08-05T16:40:47.643Z,0.75
2022-08-05T16:43:18.900Z,0.27
2022-08-05T16:46:07.434Z,2.38
2022-08-05T16:48:35.073Z,0.93
2022-08-05T16:51:02.467Z,1.35
2022-08-05T16:54:04.050Z,1.38
2022-08-05T16:56:22.066Z,1.65
2022-08-05T16:58:49.944Z,0.88
2022-08-05T17:01:16.760Z,0.93
2022-08-05T17:03:45.497Z,0.85
2022-08-05T17:06:12.163Z,0.30
2022-08-05T17:08:52.817Z,0.40
2022-08-05T17:11:25.311Z,0.75
2022-08-05T17:14:05.672Z,0.82
2022-08-05T17:16:35.956Z,1.30
2022-08-05T17:19:07.503Z,1.40
2022-08-05T17:21:37.325Z,2.10
2022-08-05T17:24:31.236Z,2.05
2022-08-05T17:26:58.686Z,1.05
2022-08-05T17:29:33.959Z,1.05
2022-08-05T17:32:11.294Z,0.73
2022-08-05T17:34:38.269Z,2.30
2022-08-05T17:37:35.863Z,0.47
2022-08-05T17:39:55.116Z,1.08
2022-08-05T17:42:27.023Z,1.13
2022-08-05T17:44:56.311Z,2.03
2022-08-05T17:47:23.749Z,2.97
2022-08-05T17:49:59.516Z,0.63
2022-08-05T17:52:30.453Z,0.75
2022-08-05T17:54:57.866Z,2.30
2022-08-05T17:57:24.678Z,2.53
2022-08-05T18:00:03.470Z,0.45
2022-08-05T18:02:31.869Z,2.83
2022-08-05T18:04:58.721Z,2.88
2022-08-05T18:07:25.450Z,0.82
2022-08-05T18:10:08.705Z,0.50
2022-08-05T18:12:37.310Z,1.52
2022-08-05T18:15:04.757Z,0.75
2022-08-05T18:17:59.677Z,1.08
2022-08-05T18:20:29.555Z,0.68
2022-08-05T18:23:00.735Z,0.70
2022-08-05T18:25:36.927Z,0.30
2022-08-05T18:28:06.646Z,1.27
2022-08-05T18:30:34.439Z,2.97
2022-08-05T18:33:01.764Z,1.63
2022-08-05T18:36:01.234Z,1.77
2022-08-05T18:38:19.338Z,1.35
2022-08-05T18:41:53.757Z,2.17
2022-08-05T18:43:43.024Z,0.77
2022-08-05T18:46:15.958Z,1.90
2022-08-05T18:48:47.172Z,1.52
2022-08-05T18:52:06.652Z,2.30
2022-08-05T18:54:19.557Z,1.60
2022-08-05T18:56:51.164Z,0.98
2022-08-05T18:59:42.908Z,1.27
2022-08-05T19:02:26.326Z,2.08
2022-08-05T19:05:01.595Z,1.15
2022-08-05T19:07:46.150Z,4.43
2022-08-05T19:10:17.365Z,0.85
2022-08-05T19:12:46.110Z,2.47
2022-08-05T19:15:57.983Z,1.65
2022-08-05T19:18:10.080Z,1.33
2022-08-05T19:20:41.708Z,1.13
2022-08-05T19:24:04.119Z,1.15
2022-08-05T19:26:03.223Z,1.80
2022-08-05T19:28:34.731Z,0.65
2022-08-05T19:31:01.462Z,1.15
2022-08-05T19:33:35.789Z,2.33
2022-08-05T19:36:06.893Z,2.70
2022-08-05T19:38:36.824Z,3.53
2022-08-05T19:41:09.164Z,3.80
2022-08-05T19:44:06.700Z,1.00
2022-08-05T19:46:29.951Z,1.45
2022-08-05T19:49:01.104Z,0.52
2022-08-05T19:52:08.390Z,2.63
2022-08-05T19:54:21.994Z,0.80
2022-08-05T19:57:09.322Z,0.63
2022-08-05T20:00:00.766Z,1.55
2022-08-05T20:02:24.076Z,0.93
2022-08-05T20:04:52.994Z,1.15
2022-08-05T20:07:46.744Z,1.45
2022-08-05T20:10:13.135Z,1.58
2022-08-05T20:12:47.910Z,0.43
2022-08-05T20:15:48.907Z,1.02
2022-08-05T20:18:04.445Z,1.58
2022-08-05T20:20:38.029Z,1.10
2022-08-05T20:23:05.302Z,1.38
2022-08-05T20:25:33.716Z,1.65
2022-08-05T20:28:14.671Z,1.48
2022-08-05T20:30:41.657Z,0.68
2022-08-05T20:33:08.790Z,1.42
2022-08-05T20:35:40.564Z,4.32
2022-08-05T20:38:12.033Z,0.55
2022-08-05T20:40:47.658Z,0.30
2022-08-05T20:43:17.437Z,2.20
2022-08-05T20:46:03.988Z,4.68
2022-08-05T20:48:30.549Z,0.75
2022-08-05T20:50:57.078Z,1.33
2022-08-05T20:53:36.936Z,1.50
2022-08-05T20:56:09.695Z,0.52
2022-08-05T20:58:36.966Z,1.27
2022-08-05T21:01:04.566Z,2.35
2022-08-05T21:03:34.737Z,4.10
2022-08-05T21:06:01.982Z,0.95
2022-08-05T21:08:41.898Z,1.75
2022-08-05T21:12:06.987Z,6.65
2022-08-05T21:14:00.264Z,1.23
2022-08-05T21:16:30.466Z,2.63
2022-08-05T21:19:01.560Z,1.25
2022-08-05T21:21:39.764Z,1.80
2022-08-05T21:24:16.564Z,0.98
2022-08-05T21:26:53.699Z,3.88
2022-08-05T21:29:32.163Z,3.05
2022-08-05T21:31:59.866Z,1.75
2022-08-05T21:34:28.293Z,1.13
2022-08-05T21:36:58.206Z,0.80
2022-08-05T21:39:26.696Z,1.08
2022-08-05T21:42:01.653Z,2.22
2022-08-05T21:44:30.435Z,0.90
2022-08-05T21:46:58.256Z,1.98
2022-08-05T21:49:56.570Z,2.95
2022-08-05T21:52:23.053Z,2.40
2022-08-05T21:54:56.184Z,2.13
2022-08-05T21:57:31.435Z,1.23
2022-08-05T22:00:04.937Z,1.23
2022-08-05T22:02:33.377Z,2.22
2022-08-05T22:05:00.225Z,3.67
2022-08-05T22:07:40.053Z,0.85
2022-08-05T22:10:15.118Z,1.45
2022-08-05T22:12:44.721Z,0.88
2022-08-05T22:15:16.660Z,2.95
2022-08-05T22:18:00.726Z,1.25
2022-08-05T22:20:27.408Z,1.13
2022-08-05T22:23:17.135Z,1.33
2022-08-05T22:26:11.398Z,0.50
2022-08-05T22:28:38.794Z,2.58
2022-08-05T22:31:06.233Z,1.08
2022-08-05T22:33:56.788Z,1.75
2022-08-05T22:36:24.181Z,1.45
2022-08-05T22:38:51.690Z,2.83
2022-08-05T22:42:04.446Z,1.40
2022-08-05T22:44:08.437Z,1.25
2022-08-05T22:46:40.004Z,1.48
2022-08-05T22:49:23.070Z,2.30
2022-08-05T22:52:06.445Z,3.78
2022-08-05T22:54:35.066Z,1.17
2022-08-05T22:57:01.719Z,0.47
2022-08-05T22:59:44.157Z,1.83
2022-08-05T23:02:28.882Z,1.88
2022-08-05T23:05:01.779Z,1.30
2022-08-05T23:07:31.594Z,2.03
2022-08-05T23:10:01.451Z,5.55
2022-08-05T23:12:32.962Z,2.22
2022-08-05T23:15:08.514Z,0.85
2022-08-05T23:17:59.739Z,2.95
2022-08-05T23:20:23.580Z,1.85
2022-08-05T23:22:54.213Z,1.80
2022-08-05T23:25:51.408Z,1.48
2022-08-05T23:28:09.126Z,1.40
2022-08-05T23:30:39.737Z,1.40
2022-08-05T23:33:16.289Z,3.45
2022-08-05T23:35:50.508Z,0.95
2022-08-05T23:38:17.442Z,2.90
2022-08-05T23:40:49.809Z,2.85
2022-08-05T23:43:25.667Z,3.30
2022-08-05T23:46:20.277Z,2.22
2022-08-05T23:49:01.143Z,2.58
2022-08-05T23:51:53.674Z,2.30
2022-08-05T23:54:29.864Z,1.70
2022-08-05T23:57:03.750Z,3.00
2022-08-05T23:59:37.683Z,2.53
